Time;durP1;ratioP1;P1;durP2;ratioP2;P2;SDS_P1;SDS_P2;PMS_P1;PMS_P2;Temp;Humidity;BMP_temperature;BMP_pressure;BME280_temperature;BME280_humidity;BME280_pressure;Samples;Min_cycle;Max_cycle;Signal;HPM_P1;HPM_P2
2023/09/18 00:01:05;;;;;;;9.57;7.60;;;;;;;26.85;44.37;99935.00;4484833;32;33962;-64
2023/09/18 00:03:33;;;;;;;12.32;7.60;;;;;;;26.85;44.35;99934.19;4484786;32;34045;-64
2023/09/18 00:06:01;;;;;;;10.52;8.05;;;;;;;26.84;44.35;99930.63;4484981;32;34989;-64
2023/09/18 00:08:28;;;;;;;10.77;7.62;;;;;;;26.83;44.33;99934.44;4484517;32;33847;-64
2023/09/18 00:10:56;;;;;;;10.48;7.32;;;;;;;26.83;44.34;99931.69;4484565;32;34787;-64
2023/09/18 00:13:24;;;;;;;7.85;6.57;;;;;;;26.82;44.32;99931.94;4483620;32;34246;-64
2023/09/18 00:15:54;;;;;;;8.90;7.70;;;;;;;26.82;44.35;99924.56;4484531;32;32972;-64
2023/09/18 00:18:22;;;;;;;8.68;6.87;;;;;;;26.82;44.49;99923.75;4470666;32;34535;-64
2023/09/18 00:20:51;;;;;;;10.27;7.25;;;;;;;26.82;44.44;99921.81;4484649;32;33962;-64
2023/09/18 00:23:19;;;;;;;9.70;7.00;;;;;;;26.82;44.36;99923.75;4483390;32;33858;-65
2023/09/18 00:25:47;;;;;;;8.95;7.47;;;;;;;26.81;44.39;99922.88;4485039;32;33220;-65
2023/09/18 00:28:15;;;;;;;10.40;7.20;;;;;;;26.81;44.41;99925.63;4484605;32;34417;-64
2023/09/18 00:30:46;;;;;;;7.85;6.32;;;;;;;26.81;44.40;99927.53;4484367;32;33861;-64
2023/09/18 00:33:14;;;;;;;9.20;7.37;;;;;;;26.80;44.38;99923.97;4482984;32;33948;-64
2023/09/18 00:35:45;;;;;;;11.12;7.78;;;;;;;26.79;44.34;99925.06;4484478;32;33129;-64
2023/09/18 00:38:13;;;;;;;10.82;6.62;;;;;;;26.79;44.35;99929.69;4484463;32;34424;-64
2023/09/18 00:40:41;;;;;;;10.05;6.53;;;;;;;26.79;44.39;99927.78;4483276;32;34845;-64
2023/09/18 00:43:10;;;;;;;8.80;6.85;;;;;;;26.79;44.32;99914.09;4484486;32;34579;-64
2023/09/18 00:45:41;;;;;;;10.35;6.85;;;;;;;26.78;44.35;99917.09;4483332;32;33529;-64
2023/09/18 00:48:09;;;;;;;7.97;6.12;;;;;;;26.78;44.35;99915.19;4470212;32;32718;-64
2023/09/18 00:50:36;;;;;;;8.43;5.90;;;;;;;26.78;44.31;99919.81;4483235;32;34101;-64
2023/09/18 00:53:04;;;;;;;8.40;6.15;;;;;;;26.79;44.29;99924.22;4470461;32;33911;-64
2023/09/18 00:55:32;;;;;;;11.68;6.25;;;;;;;26.78;44.28;99919.81;4470267;32;33150;-64
2023/09/18 00:57:59;;;;;;;9.35;6.50;;;;;;;26.77;44.28;99918.19;4483080;32;33829;-64
2023/09/18 01:00:27;;;;;;;9.80;6.22;;;;;;;26.76;44.30;99924.69;4483091;32;34837;-65
2023/09/18 01:02:55;;;;;;;7.95;6.15;;;;;;;26.77;44.29;99912.69;4483041;32;33646;-64
2023/09/18 01:05:22;;;;;;;7.45;6.20;;;;;;;26.76;44.24;99913.75;4482980;32;33121;-64
2023/09/18 01:07:51;;;;;;;8.23;6.22;;;;;;;26.76;44.25;99913.75;4484006;32;34012;-64
2023/09/18 01:10:19;;;;;;;12.65;6.85;;;;;;;26.76;44.29;99911.00;4483668;32;34898;-64
2023/09/18 01:12:49;;;;;;;7.72;5.85;;;;;;;26.76;44.34;99914.56;4469970;32;34520;-64
2023/09/18 01:15:17;;;;;;;8.55;5.68;;;;;;;26.76;44.32;99917.31;4470371;32;33610;-64
2023/09/18 01:17:45;;;;;;;8.35;6.87;;;;;;;26.75;44.27;99899.25;4484352;32;33925;-64
2023/09/18 01:20:13;;;;;;;9.32;5.78;;;;;;;26.75;44.37;99903.88;4470194;32;33882;-64
2023/09/18 01:22:41;;;;;;;7.82;6.18;;;;;;;26.75;44.32;99901.16;4484231;32;33975;-64
2023/09/18 01:25:09;;;;;;;8.73;6.47;;;;;;;26.75;44.31;99901.16;4484490;32;33399;-64
2023/09/18 01:27:36;;;;;;;12.70;6.50;;;;;;;26.75;44.25;99901.16;4484074;32;33660;-64
2023/09/18 01:30:04;;;;;;;8.05;6.22;;;;;;;26.74;44.29;99903.06;4484094;32;34912;-64
2023/09/18 01:32:32;;;;;;;9.07;6.10;;;;;;;26.73;44.27;99906.88;4484273;32;34685;-64
2023/09/18 01:35:00;;;;;;;7.68;5.85;;;;;;;26.73;44.27;99904.13;4482828;32;33330;-64
2023/09/18 01:37:29;;;;;;;8.30;6.60;;;;;;;26.73;44.21;99906.06;4470052;32;33907;-64
2023/09/18 01:39:59;;;;;;;9.15;5.75;;;;;;;26.72;44.22;99907.97;4482943;32;34001;-64
2023/09/18 01:42:28;;;;;;;10.70;6.15;;;;;;;26.73;44.14;99908.78;4482685;32;34381;-64
2023/09/18 01:44:55;;;;;;;9.23;5.40;;;;;;;26.73;44.17;99906.06;4469928;32;34168;-64
2023/09/18 01:47:28;;;;;;;7.87;6.25;;;;;;;26.72;44.13;99907.97;4483972;32;34686;-64
2023/09/18 01:49:56;;;;;;;8.90;6.20;;;;;;;26.71;44.10;99906.28;4482856;32;32839;-64
2023/09/18 01:52:25;;;;;;;9.63;5.53;;;;;;;26.71;44.09;99904.38;4484135;32;34621;-64
2023/09/18 01:54:53;;;;;;;9.57;6.03;;;;;;;26.71;44.12;99909.84;4484073;32;33070;-64
2023/09/18 01:57:20;;;;;;;8.55;6.15;;;;;;;26.73;44.08;99911.53;4484100;32;33798;-64
2023/09/18 01:59:49;;;;;;;7.87;6.20;;;;;;;26.71;44.08;99898.06;4483006;32;34748;-64
2023/09/18 02:02:17;;;;;;;9.13;5.95;;;;;;;26.69;44.07;99898.31;4483927;32;33065;-64
2023/09/18 02:04:57;;;;;;;8.80;5.90;;;;;;;26.70;44.02;99899.16;4483943;32;34162;-64
2023/09/18 02:07:36;;;;;;;11.10;5.83;;;;;;;26.69;44.02;99901.06;4483731;32;34401;-64
2023/09/18 02:10:04;;;;;;;8.30;5.72;;;;;;;26.71;43.90;99895.31;4483918;32;34019;-64
2023/09/18 02:12:32;;;;;;;8.57;5.85;;;;;;;26.69;43.95;99894.75;4483923;32;33891;-64
2023/09/18 02:15:06;;;;;;;8.07;6.43;;;;;;;26.68;44.00;99896.66;4482480;32;32897;-64
2023/09/18 02:17:33;;;;;;;9.18;5.95;;;;;;;26.69;43.98;99892.03;4483802;32;34381;-64
2023/09/18 02:20:04;;;;;;;7.53;5.85;;;;;;;26.68;43.97;99896.66;4483446;32;33423;-64
2023/09/18 02:22:32;;;;;;;7.65;5.93;;;;;;;26.68;43.93;99896.66;4483652;32;33713;-64
2023/09/18 02:25:01;;;;;;;8.57;6.35;;;;;;;26.67;43.89;99895.00;4483760;32;33444;-64
2023/09/18 02:27:29;;;;;;;9.05;6.10;;;;;;;26.69;43.89;99902.97;4483421;32;33539;-64
2023/09/18 02:29:56;;;;;;;9.55;6.20;;;;;;;26.68;43.85;99909.53;4483722;32;33539;-64
2023/09/18 02:32:24;;;;;;;12.32;6.78;;;;;;;26.67;43.91;99913.31;4483575;32;33840;-64
2023/09/18 02:34:52;;;;;;;7.47;5.53;;;;;;;26.67;43.89;99913.31;4483492;32;34221;-64
2023/09/18 02:37:19;;;;;;;10.75;6.20;;;;;;;26.67;43.83;99918.78;4483604;32;33820;-64
2023/09/18 02:39:48;;;;;;;7.57;6.00;;;;;;;26.67;43.79;99916.06;4483522;32;33835;-64
2023/09/18 02:42:17;;;;;;;9.88;5.82;;;;;;;26.67;43.81;99913.31;4483337;32;34022;-64
2023/09/18 02:44:44;;;;;;;8.50;5.97;;;;;;;26.67;43.76;99913.31;4483334;32;33441;-65
2023/09/18 02:47:12;;;;;;;9.57;6.65;;;;;;;26.66;43.77;99903.44;4483433;32;33827;-64
2023/09/18 02:49:40;;;;;;;8.20;5.75;;;;;;;26.65;43.75;99919.03;4483201;32;34660;-64
2023/09/18 02:52:08;;;;;;;9.68;6.10;;;;;;;26.64;43.72;99917.37;4483493;32;34446;-64
2023/09/18 02:54:36;;;;;;;8.27;5.70;;;;;;;26.64;43.72;99917.37;4483562;32;33315;-64
2023/09/18 02:57:03;;;;;;;7.60;5.72;;;;;;;26.64;43.80;99917.37;4483092;32;33931;-64
2023/09/18 02:59:32;;;;;;;10.07;6.32;;;;;;;26.63;43.79;99918.47;4483213;32;34032;-64
2023/09/18 03:01:59;;;;;;;9.20;6.37;;;;;;;26.65;43.69;99918.22;4483212;32;33823;-64
2023/09/18 03:04:28;;;;;;;7.53;5.05;;;;;;;26.63;43.69;99913.00;4482947;32;33044;-64
2023/09/18 03:06:55;;;;;;;9.38;6.12;;;;;;;26.64;43.76;99913.81;4482101;32;34465;-64
2023/09/18 03:09:23;;;;;;;7.68;5.72;;;;;;;26.64;43.78;99914.66;4483091;32;33564;-64
2023/09/18 03:11:51;;;;;;;8.13;6.12;;;;;;;26.63;43.77;99910.25;4483068;32;33808;-64
2023/09/18 03:14:19;;;;;;;9.25;5.82;;;;;;;26.63;43.77;99913.00;4483054;32;34142;-64
2023/09/18 03:16:46;;;;;;;6.90;5.53;;;;;;;26.63;43.75;99898.50;4481695;32;33847;-64
2023/09/18 03:19:14;;;;;;;8.13;5.32;;;;;;;26.63;43.75;99896.56;4482763;32;33989;-64
2023/09/18 03:21:42;;;;;;;7.80;6.25;;;;;;;26.62;43.69;99894.91;4483164;32;34597;-64
2023/09/18 03:24:10;;;;;;;10.38;6.65;;;;;;;26.62;43.67;99896.81;4483019;32;33545;-64
2023/09/18 03:26:37;;;;;;;8.98;6.87;;;;;;;26.62;43.70;99892.16;4482767;32;33715;-64
2023/09/18 03:29:05;;;;;;;11.02;6.62;;;;;;;26.61;43.70;99890.50;4482798;32;33976;-65
2023/09/18 03:31:33;;;;;;;12.98;6.82;;;;;;;26.63;43.77;99893.00;4483302;32;33360;-64
2023/09/18 03:34:00;;;;;;;7.80;5.75;;;;;;;26.62;43.75;99891.31;4485137;32;33193;-64
2023/09/18 03:36:28;;;;;;;8.57;7.03;;;;;;;26.61;43.71;99889.69;4485338;32;33626;-64
2023/09/18 03:38:55;;;;;;;8.32;6.30;;;;;;;26.61;43.67;99887.75;4484955;32;34703;-64
2023/09/18 03:41:23;;;;;;;11.50;6.00;;;;;;;26.61;43.72;99895.16;4484805;32;33840;-64
2023/09/18 03:43:52;;;;;;;10.10;6.62;;;;;;;26.60;43.63;99896.22;4485110;32;33635;-64
2023/09/18 03:46:20;;;;;;;11.43;6.70;;;;;;;26.61;43.63;99892.41;4485110;32;33668;-64
2023/09/18 03:48:48;;;;;;;11.82;6.72;;;;;;;26.60;43.65;99888.84;4484931;32;35409;-64
2023/09/18 03:51:15;;;;;;;10.00;7.18;;;;;;;26.59;43.65;99892.66;4485196;32;34821;-64
2023/09/18 03:53:44;;;;;;;9.18;6.75;;;;;;;26.59;43.66;99900.88;4484583;32;33441;-64
2023/09/18 03:56:12;;;;;;;10.85;7.35;;;;;;;26.60;43.62;99894.31;4484998;32;33850;-64
2023/09/18 03:58:40;;;;;;;10.13;6.00;;;;;;;26.60;43.64;99897.06;4484910;32;34519;-64
2023/09/18 04:01:08;;;;;;;10.10;7.45;;;;;;;26.60;43.62;99888.03;4483332;32;33673;-64
2023/09/18 04:03:35;;;;;;;9.73;6.87;;;;;;;26.59;43.62;99889.94;4484983;32;33340;-64
2023/09/18 04:06:03;;;;;;;9.00;5.87;;;;;;;26.59;43.63;99881.72;4484718;32;34003;-64
2023/09/18 04:08:31;;;;;;;12.07;7.07;;;;;;;26.58;43.63;99885.53;4484906;32;33793;-64
2023/09/18 04:11:00;;;;;;;12.40;7.20;;;;;;;26.59;43.61;99884.47;4484951;32;34764;-64
2023/09/18 04:13:28;;;;;;;9.18;6.68;;;;;;;26.59;43.58;99886.37;4483519;32;33632;-64
2023/09/18 04:15:56;;;;;;;11.40;7.32;;;;;;;26.59;43.58;99881.72;4484903;32;33862;-65
2023/09/18 04:18:25;;;;;;;10.90;7.28;;;;;;;26.58;43.56;99874.59;4483474;32;33958;-65
2023/09/18 04:20:53;;;;;;;12.10;7.80;;;;;;;26.58;43.54;99877.34;4484882;32;34751;-64
2023/09/18 04:23:25;;;;;;;10.57;7.12;;;;;;;26.58;43.51;99869.13;4484694;32;33180;-64
2023/09/18 04:25:54;;;;;;;8.63;6.43;;;;;;;26.57;43.47;99867.44;4484500;32;33989;-64
2023/09/18 04:28:22;;;;;;;13.77;7.90;;;;;;;26.58;43.48;99869.13;4484278;32;34784;-65
2023/09/18 04:30:49;;;;;;;10.18;7.78;;;;;;;26.58;43.52;99862.78;4482726;32;33815;-65
2023/09/18 04:33:17;;;;;;;9.75;7.18;;;;;;;26.57;43.56;99866.59;4484452;32;33236;-65
2023/09/18 04:35:46;;;;;;;11.52;6.95;;;;;;;26.57;43.52;99863.87;4482867;32;34615;-65
2023/09/18 04:38:19;;;;;;;11.23;7.18;;;;;;;26.57;43.52;99858.41;4484184;32;33543;-65
2023/09/18 04:40:47;;;;;;;11.43;7.25;;;;;;;26.56;43.46;99865.78;4484136;32;33706;-64
2023/09/18 04:43:15;;;;;;;9.65;7.50;;;;;;;26.57;43.50;99872.09;4482584;32;32435;-64
2023/09/18 04:45:44;;;;;;;13.13;7.00;;;;;;;26.57;43.42;99867.44;4484325;32;33791;-63
2023/09/18 04:48:12;;;;;;;10.98;7.28;;;;;;;26.56;43.40;99876.72;4484357;32;33992;-64
2023/09/18 04:50:40;;;;;;;10.07;7.22;;;;;;;26.57;43.29;99875.66;4484015;32;34860;-64
2023/09/18 04:53:08;;;;;;;10.88;7.70;;;;;;;26.56;43.28;99865.78;4484182;32;33318;-63
2023/09/18 04:55:38;;;;;;;9.85;7.57;;;;;;;26.56;43.23;99862.22;4483986;32;33492;-64
2023/09/18 04:58:06;;;;;;;11.68;7.12;;;;;;;26.56;43.19;99865.78;4483947;32;33728;-63
2023/09/18 05:00:34;;;;;;;13.40;7.53;;;;;;;26.56;43.18;99856.75;4484342;32;33461;-64
2023/09/18 05:03:03;;;;;;;10.88;7.00;;;;;;;26.54;43.17;99861.66;4484089;32;33688;-64
2023/09/18 05:05:31;;;;;;;11.85;7.78;;;;;;;26.53;43.20;99868.16;4483906;32;33704;-64
2023/09/18 05:07:58;;;;;;;12.73;7.97;;;;;;;26.53;43.17;99871.72;4484452;32;35225;-64
2023/09/18 05:10:26;;;;;;;9.93;7.43;;;;;;;26.53;43.18;99866.25;4484219;32;33522;-64
2023/09/18 05:12:58;;;;;;;14.38;7.70;;;;;;;26.52;43.17;99863.78;4484025;32;33395;-66
2023/09/18 05:15:29;;;;;;;15.32;8.50;;;;;;;26.51;43.23;99862.94;4484533;32;33550;-65
2023/09/18 05:17:58;;;;;;;15.18;8.20;;;;;;;26.51;43.36;99864.87;4469999;32;33489;-64
2023/09/18 05:20:28;;;;;;;12.27;7.93;;;;;;;26.50;43.36;99866.78;4484083;32;34021;-64
2023/09/18 05:22:56;;;;;;;14.23;8.45;;;;;;;26.50;43.31;99866.78;4483362;32;33525;-64
2023/09/18 05:25:25;;;;;;;12.25;7.68;;;;;;;26.50;43.31;99866.78;4482566;32;33928;-64
2023/09/18 05:27:56;;;;;;;13.30;7.93;;;;;;;26.49;43.32;99872.47;4484185;32;33548;-63
2023/09/18 05:30:28;;;;;;;13.73;8.48;;;;;;;26.50;43.30;99871.41;4482500;32;34572;-64
2023/09/18 05:32:55;;;;;;;11.95;8.07;;;;;;;26.48;43.33;99874.38;4482174;32;33061;-64
2023/09/18 05:35:23;;;;;;;11.48;7.93;;;;;;;26.48;43.37;99877.13;4482159;32;34582;-64
2023/09/18 05:37:51;;;;;;;16.55;9.30;;;;;;;26.48;43.36;99866.16;4482038;32;33978;-63
2023/09/18 05:40:19;;;;;;;10.90;7.55;;;;;;;26.46;43.39;99865.59;4482203;32;35100;-64
2023/09/18 05:42:46;;;;;;;13.88;8.63;;;;;;;26.45;43.41;99858.47;4481823;32;32957;-64
2023/09/18 05:45:17;;;;;;;10.52;7.57;;;;;;;26.44;43.45;99859.56;4483233;32;34663;-64
2023/09/18 05:47:45;;;;;;;11.07;7.87;;;;;;;26.43;43.47;99860.59;4483638;32;33887;-64
2023/09/18 05:50:14;;;;;;;11.02;8.07;;;;;;;26.43;43.52;99860.59;4484011;32;33836;-63
2023/09/18 05:52:43;;;;;;;10.15;8.25;;;;;;;26.42;43.53;99859.75;4484133;32;34173;-63
2023/09/18 05:55:12;;;;;;;13.23;8.00;;;;;;;26.41;43.54;99865.47;4469364;32;33518;-63
2023/09/18 05:57:39;;;;;;;12.52;8.75;;;;;;;26.41;43.57;99860.00;4484022;32;33548;-63
2023/09/18 06:00:08;;;;;;;14.80;8.75;;;;;;;26.41;43.59;99857.25;4483816;32;34478;-63
2023/09/18 06:02:38;;;;;;;11.80;7.82;;;;;;;26.40;43.60;99856.44;4482780;32;33162;-64
2023/09/18 06:05:07;;;;;;;13.73;8.23;;;;;;;26.40;43.62;99852.88;4482643;32;33972;-64
2023/09/18 06:07:34;;;;;;;11.73;8.60;;;;;;;26.39;43.67;99867.59;4483045;32;33903;-64
2023/09/18 06:10:02;;;;;;;10.50;7.80;;;;;;;26.38;43.74;99861.31;4482522;32;34009;-63
2023/09/18 06:12:30;;;;;;;11.10;7.82;;;;;;;26.38;43.76;99857.75;4483868;32;34768;-63
2023/09/18 06:14:57;;;;;;;11.18;7.95;;;;;;;26.38;43.76;99853.09;4483824;32;33926;-64
2023/09/18 06:17:25;;;;;;;10.68;8.13;;;;;;;26.36;43.75;99849.78;4483949;32;34072;-64
2023/09/18 06:19:53;;;;;;;11.57;7.20;;;;;;;26.35;43.78;99850.88;4483806;32;34240;-63
2023/09/18 06:22:21;;;;;;;13.80;8.05;;;;;;;26.35;43.78;99850.88;4483417;32;34330;-64
2023/09/18 06:24:48;;;;;;;10.18;7.97;;;;;;;26.35;43.78;99852.78;4483612;32;34723;-64
2023/09/18 06:27:16;;;;;;;11.55;8.77;;;;;;;26.34;43.80;99848.37;4483641;32;34797;-64
2023/09/18 06:29:44;;;;;;;10.38;8.00;;;;;;;26.34;43.80;99842.91;4482155;32;33760;-64
2023/09/18 06:32:12;;;;;;;11.30;7.97;;;;;;;26.33;43.83;99844.81;4483616;32;33027;-65
2023/09/18 06:34:43;;;;;;;10.55;8.18;;;;;;;26.33;43.83;99836.59;4469435;32;34039;-64
2023/09/18 06:37:14;;;;;;;11.80;8.27;;;;;;;26.34;43.86;99837.41;4483567;32;34548;-65
2023/09/18 06:39:41;;;;;;;10.23;7.80;;;;;;;26.33;43.90;99835.78;4483680;32;33815;-64
2023/09/18 06:42:09;;;;;;;11.57;7.95;;;;;;;26.34;43.88;99840.16;4483514;32;33434;-64
2023/09/18 06:44:37;;;;;;;10.88;8.00;;;;;;;26.32;43.94;99843.16;4483597;32;34624;-64
2023/09/18 06:47:05;;;;;;;12.52;7.60;;;;;;;26.32;43.96;99836.84;4482086;32;34833;-64
2023/09/18 06:49:33;;;;;;;11.60;8.10;;;;;;;26.32;44.01;99837.69;4483244;32;33388;-65
2023/09/18 06:52:01;;;;;;;10.20;8.20;;;;;;;26.33;44.01;99844.81;4482230;32;33259;-65
2023/09/18 06:54:33;;;;;;;10.13;8.02;;;;;;;26.33;44.05;99835.78;4483594;32;34901;-64
2023/09/18 06:57:00;;;;;;;10.38;7.70;;;;;;;26.32;44.07;99834.13;4483131;32;33481;-63
2023/09/18 06:59:29;;;;;;;10.00;7.90;;;;;;;26.32;44.03;99836.84;4483144;32;33889;-64
2023/09/18 07:02:00;;;;;;;10.98;8.23;;;;;;;26.31;44.05;99835.19;4483234;32;33549;-64
2023/09/18 07:04:28;;;;;;;13.32;8.30;;;;;;;26.31;44.09;99824.25;4482965;32;33776;-63
2023/09/18 07:06:56;;;;;;;11.50;8.55;;;;;;;26.35;44.03;99836.38;4482344;32;33796;-65
2023/09/18 07:09:24;;;;;;;11.85;8.18;;;;;;;26.38;43.97;99839.41;4485127;32;34843;-64
2023/09/18 07:11:52;;;;;;;12.88;8.23;;;;;;;26.39;43.91;99840.25;4484962;32;34225;-64
2023/09/18 07:14:22;;;;;;;11.40;8.07;;;;;;;26.41;43.89;99838.12;4485146;32;33976;-64
2023/09/18 07:16:49;;;;;;;15.23;8.73;;;;;;;26.43;43.84;99839.53;4485094;32;34059;-64
2023/09/18 07:19:17;;;;;;;10.30;8.40;;;;;;;26.44;43.81;99832.19;4485239;32;33890;-64
2023/09/18 07:21:44;;;;;;;10.60;7.70;;;;;;;26.41;43.88;99832.66;4485115;32;33367;-66
2023/09/18 07:24:20;;;;;;;14.25;7.95;;;;;;;26.40;43.92;99831.00;4484858;32;33890;-64
2023/09/18 07:26:48;;;;;;;9.57;7.22;;;;;;;26.39;43.97;99834.78;4485071;32;33827;-64
2023/09/18 07:29:15;;;;;;;11.32;8.00;;;;;;;26.38;43.94;99830.38;4485070;32;34611;-65
2023/09/18 07:31:43;;;;;;;12.25;8.38;;;;;;;26.38;43.96;99833.94;4484875;32;34277;-65
2023/09/18 07:34:11;;;;;;;11.10;8.52;;;;;;;26.39;44.00;99834.78;4482070;31;33825;-64
2023/09/18 07:36:41;;;;;;;10.85;7.47;;;;;;;26.39;44.01;99827.44;4480249;32;34786;-64
2023/09/18 07:39:08;;;;;;;11.70;8.23;;;;;;;26.39;43.97;99830.16;4481836;32;32426;-64
2023/09/18 07:41:36;;;;;;;10.82;7.45;;;;;;;26.41;44.04;99830.72;4484882;32;34179;-64
2023/09/18 07:44:04;;;;;;;12.25;8.55;;;;;;;26.41;44.05;99824.44;4484929;32;33938;-64
2023/09/18 07:46:31;;;;;;;12.32;8.82;;;;;;;26.43;44.07;99828.59;4484500;32;34285;-65
2023/09/18 07:48:58;;;;;;;10.52;8.63;;;;;;;26.43;44.13;99827.78;4484623;32;34565;-64
2023/09/18 07:51:26;;;;;;;11.48;8.40;;;;;;;26.42;44.12;99826.09;4484886;32;33324;-64
2023/09/18 07:53:54;;;;;;;11.98;8.95;;;;;;;26.42;44.19;99826.91;4472533;32;34080;-64
2023/09/18 07:56:21;;;;;;;12.20;8.23;;;;;;;26.44;44.17;99826.72;4469498;32;34272;-64
2023/09/18 07:58:49;;;;;;;10.75;8.55;;;;;;;26.43;44.18;99819.56;4469252;32;33892;-64
2023/09/18 08:01:17;;;;;;;9.98;8.02;;;;;;;26.43;44.23;99812.19;4468990;32;34193;-64
2023/09/18 08:03:45;;;;;;;11.07;8.52;;;;;;;26.43;44.22;99814.91;4469349;32;33924;-64
2023/09/18 08:06:14;;;;;;;12.37;8.68;;;;;;;26.44;44.28;99815.78;4468933;32;34739;-64
2023/09/18 08:08:42;;;;;;;14.20;8.98;;;;;;;26.43;44.29;99805.88;4469011;32;33515;-64
2023/09/18 08:11:10;;;;;;;11.35;8.30;;;;;;;26.44;44.29;99811.13;4469442;32;33306;-65
2023/09/18 08:13:38;;;;;;;12.13;8.88;;;;;;;26.45;44.42;99810.06;4483812;32;33956;-64
2023/09/18 08:16:06;;;;;;;12.80;8.50;;;;;;;26.47;44.38;99803.50;4484635;32;33638;-65
2023/09/18 08:18:34;;;;;;;12.82;9.05;;;;;;;26.47;44.40;99798.84;4484650;32;33850;-64
2023/09/18 08:21:04;;;;;;;13.15;9.35;;;;;;;26.48;44.48;99791.47;4484559;32;33190;-64
2023/09/18 08:23:32;;;;;;;12.90;8.95;;;;;;;26.49;44.64;99793.13;4484635;32;33514;-65
2023/09/18 08:26:01;;;;;;;11.68;9.05;;;;;;;26.49;44.70;99793.13;4483318;32;32737;-65
2023/09/18 08:28:28;;;;;;;13.50;8.68;;;;;;;26.50;44.70;99792.91;4484398;32;33584;-65
2023/09/18 08:30:56;;;;;;;15.50;9.55;;;;;;;26.50;44.90;99790.16;4470477;32;33336;-65
2023/09/18 08:33:23;;;;;;;13.13;9.63;;;;;;;26.52;44.97;99792.63;4484648;32;33685;-65
2023/09/18 08:35:51;;;;;;;13.20;9.57;;;;;;;26.53;45.03;99797.84;4484464;32;34763;-65
2023/09/18 08:38:19;;;;;;;14.02;9.30;;;;;;;26.53;45.07;99784.16;4484353;32;34721;-64
2023/09/18 08:40:46;;;;;;;13.48;9.18;;;;;;;26.55;45.10;99783.94;4484597;32;33421;-64
2023/09/18 08:43:14;;;;;;;11.80;9.02;;;;;;;26.55;45.10;99792.97;4483112;32;33580;-65
2023/09/18 08:45:47;;;;;;;13.25;9.18;;;;;;;26.56;45.16;99791.06;4483117;32;33988;-64
2023/09/18 08:48:15;;;;;;;15.07;9.18;;;;;;;26.56;45.19;99786.41;4470458;32;34707;-65
2023/09/18 08:50:43;;;;;;;12.70;9.60;;;;;;;26.57;45.18;99790.00;4483162;32;33433;-64
2023/09/18 08:53:11;;;;;;;14.65;9.27;;;;;;;26.57;45.28;99781.78;4470529;32;32805;-65
2023/09/18 08:55:39;;;;;;;12.80;9.15;;;;;;;26.58;45.29;99784.28;4470256;32;34896;-65
2023/09/18 08:58:07;;;;;;;10.85;9.05;;;;;;;26.60;45.30;99786.75;4470043;32;33972;-64
2023/09/18 09:00:39;;;;;;;13.07;8.90;;;;;;;26.60;45.32;99795.81;4484450;32;33534;-64
2023/09/18 09:03:06;;;;;;;11.02;9.27;;;;;;;26.61;45.36;99797.44;4483227;32;33087;-65
2023/09/18 09:05:34;;;;;;;10.75;8.55;;;;;;;26.62;45.36;99795.53;4482935;32;33732;-65
2023/09/18 09:08:02;;;;;;;14.07;9.45;;;;;;;26.64;45.39;99793.41;4483024;32;34558;-64
2023/09/18 09:10:30;;;;;;;11.70;9.07;;;;;;;26.64;45.46;99801.63;4484266;32;32936;-65
2023/09/18 09:12:58;;;;;;;11.60;8.90;;;;;;;26.65;45.55;99806.00;4484561;32;33790;-63
2023/09/18 09:15:32;;;;;;;11.15;9.18;;;;;;;26.65;45.63;99801.34;4484152;32;34843;-64
2023/09/18 09:18:07;;;;;;;12.20;9.10;;;;;;;26.66;45.61;99794.81;4482932;32;34325;-64
2023/09/18 09:20:37;;;;;;;12.63;8.80;;;;;;;26.68;45.68;99797.31;4483317;32;33334;-62
2023/09/18 09:23:06;;;;;;;12.52;9.07;;;;;;;26.67;45.79;99788.28;4484317;32;34562;-64
2023/09/18 09:25:34;;;;;;;13.07;9.35;;;;;;;26.69;45.85;99788.00;4484114;32;34503;-63
2023/09/18 09:28:07;;;;;;;12.95;9.65;;;;;;;26.69;45.96;99788.84;4484300;32;33641;-63
2023/09/18 09:30:38;;;;;;;13.13;9.15;;;;;;;26.72;45.92;99776.56;4483133;32;33537;-63
2023/09/18 09:33:06;;;;;;;12.50;9.38;;;;;;;26.73;45.91;99788.34;4484340;32;34651;-63
2023/09/18 09:35:35;;;;;;;13.73;8.95;;;;;;;26.73;45.92;99778.22;4470234;32;33940;-63
2023/09/18 09:38:10;;;;;;;14.98;9.38;;;;;;;26.75;45.88;99784.28;4484299;32;33958;-63
2023/09/18 09:40:40;;;;;;;11.60;9.18;;;;;;;26.76;45.91;99788.66;4484148;32;33392;-63
2023/09/18 09:43:09;;;;;;;13.32;10.05;;;;;;;26.77;45.89;99781.31;4484162;32;34638;-63
2023/09/18 09:45:36;;;;;;;11.82;9.55;;;;;;;26.79;45.92;99784.59;4482937;32;34002;-64
2023/09/18 09:48:05;;;;;;;11.60;8.68;;;;;;;26.79;45.94;99776.41;4483838;32;33584;-64
2023/09/18 09:50:34;;;;;;;;;;;;;;;26.78;45.92;99772.84;4470300;32;33365;-64
2023/09/18 09:53:02;;;;;;;13.23;10.32;;;;;;;26.90;45.60;99772.72;4483998;32;33278;-64
2023/09/18 09:55:31;;;;;;;14.45;9.27;;;;;;;26.84;45.75;99765.53;4482734;32;35345;-64
2023/09/18 09:58:00;;;;;;;13.02;9.10;;;;;;;26.81;45.77;99757.81;4482611;32;33916;-63
2023/09/18 10:00:49;;;;;;;11.57;8.90;;;;;;;26.81;45.77;99749.59;4470155;32;33447;-63
2023/09/18 10:03:18;;;;;;;10.70;8.60;;;;;;;26.84;45.79;99757.31;4471214;32;34633;-64
2023/09/18 10:05:48;;;;;;;13.43;9.57;;;;;;;26.82;45.81;99757.56;4469690;32;33836;-64
2023/09/18 10:08:26;;;;;;;15.37;9.90;;;;;;;26.83;45.85;99750.19;4482636;32;34627;-65
2023/09/18 10:10:56;;;;;;;12.23;8.90;;;;;;;26.84;45.85;99747.19;4482612;32;33282;-65
2023/09/18 10:13:28;;;;;;;11.30;8.80;;;;;;;26.85;45.82;99748.00;4482554;32;34655;-65
2023/09/18 10:15:56;;;;;;;10.63;8.95;;;;;;;26.86;45.78;99727.75;4482522;32;33814;-65
2023/09/18 10:18:56;;;;;;;12.35;9.52;;;;;;;26.86;45.75;99727.75;4482856;32;34016;-65
2023/09/18 10:21:33;;;;;;;14.07;8.88;;;;;;;26.89;45.81;99724.53;4482751;32;34487;-64
2023/09/18 10:24:12;;;;;;;13.15;9.45;;;;;;;26.86;45.93;99727.75;4482841;32;33897;-65
2023/09/18 10:26:58;;;;;;;15.13;9.93;;;;;;;26.87;45.91;99716.59;4482637;32;33501;-65
2023/09/18 10:29:26;;;;;;;12.68;9.55;;;;;;;26.90;45.81;99702.38;4482819;32;33775;-65
2023/09/18 10:31:54;;;;;;;16.23;10.13;;;;;;;26.88;45.80;99693.59;4482433;32;33884;-64
2023/09/18 10:34:23;;;;;;;15.35;10.05;;;;;;;26.89;45.79;99691.69;4483617;32;33646;-65
2023/09/18 10:36:53;;;;;;;11.63;9.02;;;;;;;26.89;45.76;99689.75;4483798;32;33862;-64
2023/09/18 10:39:23;;;;;;;14.52;9.30;;;;;;;26.90;45.74;99691.41;4483569;32;33826;-65
2023/09/18 10:41:53;;;;;;;13.80;8.27;;;;;;;26.91;45.73;99695.00;4469935;32;32689;-64
2023/09/18 10:44:21;;;;;;;13.85;9.43;;;;;;;26.90;45.80;99696.06;4482058;32;33426;-64
2023/09/18 10:46:49;;;;;;;11.60;9.30;;;;;;;26.90;45.87;99690.59;4468924;32;33890;-65
2023/09/18 10:49:17;;;;;;;14.32;9.20;;;;;;;26.90;45.93;99677.72;4457767;32;34084;-64
2023/09/18 10:51:46;;;;;;;10.65;8.93;;;;;;;26.90;45.97;99687.84;4453542;32;34083;-64
2023/09/18 10:54:20;;;;;;;12.57;9.07;;;;;;;26.88;46.08;99682.63;4466776;32;34586;-64
2023/09/18 10:56:48;;;;;;;14.68;9.80;;;;;;;26.90;46.15;99685.12;4466414;32;33831;-64
2023/09/18 10:59:17;;;;;;;13.10;9.30;;;;;;;26.90;46.18;99683.19;4468123;32;33880;-62
2023/09/18 11:01:48;;;;;;;13.48;8.82;;;;;;;26.90;46.24;99683.19;4475748;32;34149;-63
2023/09/18 11:04:20;;;;;;;12.80;9.38;;;;;;;26.91;46.27;99676.66;4458610;32;33661;-62
2023/09/18 11:06:54;;;;;;;13.75;9.02;;;;;;;26.90;46.36;99677.72;4469175;32;33657;-63
2023/09/18 11:09:23;;;;;;;14.20;9.98;;;;;;;26.93;46.38;99670.94;4482848;32;34846;-63
2023/09/18 11:12:02;;;;;;;12.68;9.55;;;;;;;26.91;46.43;99668.47;4469012;32;33550;-63
2023/09/18 11:15:10;;;;;;;13.80;9.68;;;;;;;26.93;46.43;99663.53;4483027;32;33830;-63
2023/09/18 11:17:38;;;;;;;12.70;9.40;;;;;;;26.96;46.41;99657.56;4433921;32;34448;-63
2023/09/18 11:20:12;;;;;;;14.18;9.05;;;;;;;26.92;46.54;99655.59;4433882;32;33590;-62
2023/09/18 11:22:46;;;;;;;14.68;9.95;;;;;;;26.91;46.59;99637.50;4440893;32;32365;-62
2023/09/18 11:25:41;;;;;;;13.38;10.25;;;;;;;26.92;46.60;99647.38;4482974;32;33700;-62
2023/09/18 11:28:17;;;;;;;14.80;9.55;;;;;;;26.94;46.58;99639.72;4482899;32;33249;-62
2023/09/18 11:31:03;;;;;;;13.45;9.88;;;;;;;26.92;46.64;99640.00;4465328;32;33261;-62
2023/09/18 11:33:34;;;;;;;14.98;10.15;;;;;;;26.94;46.63;99639.72;4476691;32;32874;-63
2023/09/18 11:36:07;;;;;;;13.68;9.27;;;;;;;26.93;46.67;99663.53;4482654;32;33966;-62